createdAt,value
2022-10-23T00:01:29.749Z,85.00
2022-10-23T00:04:01.919Z,85.00
2022-10-23T00:06:31.840Z,85.20
2022-10-23T00:08:58.539Z,85.40
2022-10-23T00:11:27.651Z,85.10
2022-10-23T00:13:56.769Z,85.30
2022-10-23T00:16:23.416Z,85.30
2022-10-23T00:18:50.048Z,85.30
2022-10-23T00:21:17.444Z,85.20
2022-10-23T00:23:45.127Z,86.10
2022-10-23T00:26:15.613Z,85.20
2022-10-23T00:28:47.432Z,85.30
2022-10-23T00:31:14.720Z,85.30
2022-10-23T00:33:42.178Z,85.20
2022-10-23T00:36:11.624Z,85.50
2022-10-23T00:38:38.796Z,85.50
2022-10-23T00:41:07.200Z,85.40
2022-10-23T00:43:35.531Z,85.50
2022-10-23T00:46:02.215Z,85.40
2022-10-23T00:48:29.164Z,85.40
2022-10-23T00:50:56.477Z,85.30
2022-10-23T00:53:23.628Z,85.30
2022-10-23T00:55:53.077Z,85.50
2022-10-23T00:58:20.909Z,85.50
2022-10-23T01:00:53.438Z,85.60
2022-10-23T01:03:23.490Z,85.50
2022-10-23T01:06:25.626Z,85.50
2022-10-23T01:09:18.391Z,85.50
2022-10-23T01:11:47.925Z,85.60
2022-10-23T01:14:54.636Z,85.50
2022-10-23T01:17:39.686Z,85.40
2022-10-23T01:20:27.059Z,85.60
2022-10-23T01:23:17.482Z,85.60
2022-10-23T01:26:15.837Z,85.70
2022-10-23T01:28:57.427Z,85.80
2022-10-23T01:31:50.929Z,85.90
2022-10-23T01:34:29.205Z,85.90
2022-10-23T01:36:59.087Z,85.90
2022-10-23T01:39:31.048Z,85.90
2022-10-23T01:42:08.520Z,85.90
2022-10-23T01:44:41.637Z,85.80
2022-10-23T01:47:10.825Z,86.00
2022-10-23T01:49:40.201Z,86.10
2022-10-23T01:52:11.531Z,86.00
2022-10-23T01:54:42.342Z,86.10
2022-10-23T01:57:12.940Z,86.00
2022-10-23T01:59:46.209Z,85.90
2022-10-23T02:02:14.442Z,86.00
2022-10-23T02:04:47.780Z,86.10
2022-10-23T02:07:14.444Z,86.00
2022-10-23T02:09:41.068Z,86.20
2022-10-23T02:12:13.232Z,86.20
2022-10-23T02:14:50.077Z,86.20
2022-10-23T02:17:44.754Z,86.20
2022-10-23T02:20:17.185Z,86.10
2022-10-23T02:23:02.833Z,86.00
2022-10-23T02:25:54.255Z,85.90
2022-10-23T02:28:26.160Z,86.00
2022-10-23T02:30:55.006Z,87.10
2022-10-23T02:33:22.952Z,86.50
2022-10-23T02:35:50.269Z,86.40
2022-10-23T02:38:30.300Z,86.40
2022-10-23T02:41:18.176Z,86.20
2022-10-23T02:43:57.370Z,86.50
2022-10-23T02:46:49.472Z,86.30
2022-10-23T02:49:24.529Z,86.30
2022-10-23T02:52:13.239Z,86.10
2022-10-23T02:54:50.349Z,86.30
2022-10-23T02:57:29.869Z,86.30
2022-10-23T03:00:08.527Z,86.60
2022-10-23T03:02:43.151Z,86.40
2022-10-23T03:05:14.973Z,86.70
2022-10-23T03:07:42.019Z,86.80
2022-10-23T03:10:09.918Z,86.60
2022-10-23T03:12:36.965Z,86.60
2022-10-23T03:15:04.657Z,86.60
2022-10-23T03:17:31.259Z,87.10
2022-10-23T03:19:57.874Z,87.20
2022-10-23T03:22:24.540Z,87.00
2022-10-23T03:24:51.168Z,86.90
2022-10-23T03:27:17.834Z,86.80
2022-10-23T03:29:44.474Z,86.90
2022-10-23T03:32:11.040Z,86.80
2022-10-23T03:34:37.685Z,86.70
2022-10-23T03:37:04.367Z,87.70
2022-10-23T03:39:30.920Z,86.70
2022-10-23T03:41:57.500Z,86.90
2022-10-23T03:44:24.079Z,86.80
2022-10-23T03:46:50.702Z,87.00
2022-10-23T03:49:17.262Z,87.10
2022-10-23T03:51:44.762Z,87.00
2022-10-23T03:54:11.559Z,87.00
2022-10-23T03:56:38.115Z,86.80
2022-10-23T03:59:04.975Z,86.80
2022-10-23T04:01:31.653Z,87.00
2022-10-23T04:03:58.285Z,87.10
2022-10-23T04:06:24.833Z,87.10
2022-10-23T04:08:51.543Z,87.10
2022-10-23T04:11:18.112Z,86.90
2022-10-23T04:13:44.754Z,88.00
2022-10-23T04:16:11.351Z,87.70
2022-10-23T04:18:39.764Z,87.70
2022-10-23T04:21:06.360Z,88.20
2022-10-23T04:23:33.067Z,88.20
2022-10-23T04:25:59.860Z,88.20
2022-10-23T04:28:27.193Z,88.10
2022-10-23T04:30:53.883Z,88.70
2022-10-23T04:33:21.384Z,89.40
2022-10-23T04:35:48.005Z,89.60
2022-10-23T04:38:14.585Z,89.90
2022-10-23T04:40:41.156Z,89.40
2022-10-23T04:43:07.874Z,89.30
2022-10-23T04:45:34.529Z,89.10
2022-10-23T04:48:01.093Z,89.70
2022-10-23T04:50:27.648Z,90.10
2022-10-23T04:52:55.592Z,89.80
2022-10-23T04:55:22.932Z,90.10
2022-10-23T04:57:49.541Z,89.80
2022-10-23T05:00:16.282Z,90.20
2022-10-23T05:02:43.085Z,90.10
2022-10-23T05:05:10.100Z,89.90
2022-10-23T05:07:37.268Z,90.10
2022-10-23T05:10:05.182Z,90.20
2022-10-23T05:12:31.841Z,89.90
2022-10-23T05:14:58.570Z,89.70
2022-10-23T05:17:34.428Z,89.70
2022-10-23T05:20:05.454Z,89.70
2022-10-23T05:22:36.902Z,90.10
2022-10-23T05:25:04.933Z,90.00
2022-10-23T05:27:31.635Z,89.70
2022-10-23T05:29:58.207Z,89.50
2022-10-23T05:32:27.319Z,89.80
2022-10-23T05:34:54.409Z,89.70
2022-10-23T05:37:21.541Z,89.60
2022-10-23T05:39:48.127Z,89.60
2022-10-23T05:42:14.707Z,90.00
2022-10-23T05:44:41.373Z,90.00
2022-10-23T05:47:08.213Z,90.10
2022-10-23T05:49:34.929Z,89.80
2022-10-23T05:52:01.472Z,89.70
2022-10-23T05:54:28.070Z,89.80
2022-10-23T05:56:55.976Z,90.00
2022-10-23T05:59:23.348Z,89.50
2022-10-23T06:01:50.417Z,89.60
2022-10-23T06:04:17.172Z,89.50
2022-10-23T06:06:46.449Z,89.80
2022-10-23T06:09:14.144Z,89.50
2022-10-23T06:11:41.565Z,89.30
2022-10-23T06:14:08.191Z,89.20
2022-10-23T06:16:34.797Z,89.10
2022-10-23T06:19:01.387Z,89.20
2022-10-23T06:21:28.141Z,89.20
2022-10-23T06:23:55.257Z,89.20
2022-10-23T06:26:21.868Z,89.30
2022-10-23T06:28:48.467Z,89.30
2022-10-23T06:31:18.042Z,89.30
2022-10-23T06:33:44.644Z,89.30
2022-10-23T06:36:11.408Z,89.50
2022-10-23T06:38:40.259Z,89.40
2022-10-23T06:41:16.042Z,89.40
2022-10-23T06:43:42.769Z,89.20
2022-10-23T06:46:10.038Z,90.10
2022-10-23T06:48:36.695Z,90.10
2022-10-23T06:51:08.875Z,90.00
2022-10-23T06:53:36.779Z,90.20
2022-10-23T06:56:05.115Z,90.00
2022-10-23T06:58:32.135Z,90.20
2022-10-23T07:01:02.520Z,90.00
2022-10-23T07:03:29.414Z,90.30
2022-10-23T07:05:56.167Z,90.20
2022-10-23T07:08:23.772Z,90.20
2022-10-23T07:10:50.379Z,90.20
2022-10-23T07:13:17.274Z,90.20
2022-10-23T07:15:44.128Z,90.10
2022-10-23T07:18:16.368Z,90.20
2022-10-23T07:20:43.215Z,90.30
2022-10-23T07:23:11.955Z,90.40
2022-10-23T07:25:38.618Z,90.40
2022-10-23T07:28:05.424Z,90.30
2022-10-23T07:30:32.127Z,90.50
2022-10-23T07:32:58.694Z,90.50
2022-10-23T07:35:25.352Z,90.50
2022-10-23T07:37:51.917Z,90.60
2022-10-23T07:40:18.846Z,90.50
2022-10-23T07:42:45.536Z,90.70
2022-10-23T07:45:12.502Z,90.60
2022-10-23T07:47:39.070Z,90.40
2022-10-23T07:50:06.249Z,90.60
2022-10-23T07:52:35.954Z,90.50
2022-10-23T07:55:02.930Z,90.60
2022-10-23T07:57:29.515Z,90.70
2022-10-23T07:59:56.066Z,90.60
2022-10-23T08:02:22.696Z,90.70
2022-10-23T08:04:50.384Z,91.20
2022-10-23T08:07:17.240Z,91.00
2022-10-23T08:09:43.803Z,91.00
2022-10-23T08:12:10.365Z,90.90
2022-10-23T08:14:37.068Z,90.80
2022-10-23T08:17:05.052Z,90.70
2022-10-23T08:19:32.136Z,90.50
2022-10-23T08:21:58.684Z,90.60
2022-10-23T08:24:25.333Z,90.50
2022-10-23T08:26:51.900Z,90.50
2022-10-23T08:29:18.637Z,90.50
2022-10-23T08:31:45.244Z,90.50
2022-10-23T08:34:11.921Z,90.60
2022-10-23T08:36:39.249Z,90.70
2022-10-23T08:39:06.989Z,90.70
2022-10-23T08:41:35.504Z,90.70
2022-10-23T08:44:22.773Z,90.40
2022-10-23T08:46:59.223Z,90.40
2022-10-23T08:49:49.119Z,90.20
2022-10-23T08:52:40.798Z,90.60
2022-10-23T08:55:24.309Z,90.40
2022-10-23T08:58:05.520Z,90.50
2022-10-23T09:00:32.459Z,90.40
2022-10-23T09:03:02.519Z,90.20
2022-10-23T09:05:31.884Z,90.50
2022-10-23T09:08:14.593Z,90.60
2022-10-23T09:10:46.043Z,90.50
2022-10-23T09:13:48.838Z,90.50
2022-10-23T09:16:27.293Z,90.30
2022-10-23T09:18:55.673Z,90.10
2022-10-23T09:21:27.574Z,90.00
2022-10-23T09:23:54.266Z,89.10
2022-10-23T09:26:20.915Z,90.20
2022-10-23T09:28:52.256Z,90.10
2022-10-23T09:31:19.661Z,90.10
2022-10-23T09:34:00.809Z,90.00
2022-10-23T09:36:29.453Z,89.20
2022-10-23T09:39:00.389Z,89.60
2022-10-23T09:41:39.464Z,89.50
2022-10-23T09:44:17.467Z,89.70
2022-10-23T09:49:26.429Z,89.60
2022-10-23T09:51:56.501Z,89.80
2022-10-23T09:54:24.106Z,89.80
2022-10-23T09:56:52.596Z,89.80
2022-10-23T09:59:29.663Z,89.70
2022-10-23T10:02:03.900Z,89.70
2022-10-23T10:04:40.108Z,89.50
2022-10-23T10:07:24.178Z,89.80
2022-10-23T10:09:52.370Z,89.70
2022-10-23T10:12:21.728Z,89.20
2022-10-23T10:14:54.029Z,88.90
2022-10-23T10:17:39.340Z,89.10
2022-10-23T10:20:24.317Z,88.60
2022-10-23T10:23:06.948Z,88.70
2022-10-23T10:25:33.476Z,88.20
2022-10-23T10:28:20.930Z,88.60
2022-10-23T10:31:05.581Z,88.70
2022-10-23T10:33:35.197Z,88.50
2022-10-23T10:36:11.866Z,88.40
2022-10-23T10:38:47.775Z,88.70
2022-10-23T10:41:36.789Z,88.40
2022-10-23T10:44:27.860Z,88.20
2022-10-23T10:47:27.276Z,87.40
2022-10-23T10:50:15.536Z,88.20
2022-10-23T10:52:59.247Z,87.70
2022-10-23T10:55:35.672Z,86.80
2022-10-23T10:58:10.667Z,87.70
2022-10-23T11:00:37.412Z,87.80
2022-10-23T11:03:37.613Z,87.40
2022-10-23T11:06:14.741Z,86.20
2022-10-23T11:08:56.247Z,87.40
2022-10-23T11:11:31.977Z,87.20
2022-10-23T11:13:58.871Z,85.90
2022-10-23T11:16:39.300Z,86.20
2022-10-23T11:19:26.923Z,86.70
2022-10-23T11:21:59.841Z,85.30
2022-10-23T11:24:49.568Z,85.70
2022-10-23T11:27:32.545Z,86.50
2022-10-23T11:30:17.399Z,86.80
2022-10-23T11:33:28.961Z,87.00
2022-10-23T11:35:55.471Z,85.80
2022-10-23T11:38:29.688Z,86.00
2022-10-23T11:41:01.466Z,86.30
2022-10-23T11:43:46.723Z,86.20
2022-10-23T11:46:35.212Z,83.90
2022-10-23T11:49:05.777Z,84.60
2022-10-23T11:51:35.218Z,84.60
2022-10-23T11:54:17.012Z,84.90
2022-10-23T11:57:03.187Z,83.00
2022-10-23T11:59:31.763Z,83.00
2022-10-23T12:02:01.554Z,83.10
2022-10-23T12:04:40.941Z,81.80
2022-10-23T12:07:30.785Z,82.10
2022-10-23T12:10:17.828Z,81.40
2022-10-23T12:12:58.635Z,80.80
2022-10-23T12:15:26.249Z,80.60
2022-10-23T12:18:16.924Z,79.30
2022-10-23T12:21:03.766Z,79.30
2022-10-23T12:23:41.230Z,78.70
2022-10-23T12:26:31.358Z,79.60
2022-10-23T12:29:30.954Z,77.70
2022-10-23T12:32:41.672Z,78.70
2022-10-23T12:35:08.402Z,78.80
2022-10-23T12:38:04.248Z,77.50
2022-10-23T12:40:31.034Z,78.70
2022-10-23T12:42:59.561Z,77.40
2022-10-23T12:45:33.830Z,76.60
2022-10-23T12:48:00.425Z,76.90
2022-10-23T12:50:29.715Z,77.90
2022-10-23T12:53:02.985Z,78.00
2022-10-23T12:55:45.588Z,76.50
2022-10-23T12:58:34.920Z,77.30
2022-10-23T13:01:05.032Z,76.70
2022-10-23T13:03:33.704Z,77.60
2022-10-23T13:06:02.876Z,76.40
2022-10-23T13:08:36.826Z,77.50
2022-10-23T13:11:04.440Z,77.30
2022-10-23T13:13:31.092Z,77.30
2022-10-23T13:15:57.680Z,76.70
2022-10-23T13:18:24.313Z,76.50
2022-10-23T13:20:53.968Z,76.80
2022-10-23T13:23:34.818Z,76.90
2022-10-23T13:26:06.495Z,76.30
2022-10-23T13:28:35.000Z,76.10
2022-10-23T13:31:10.397Z,76.20
2022-10-23T13:33:45.773Z,77.00
2022-10-23T13:36:13.378Z,76.10
2022-10-23T13:39:04.457Z,76.60
2022-10-23T13:41:36.756Z,76.80
2022-10-23T13:44:03.520Z,77.10
2022-10-23T13:46:30.193Z,77.30
2022-10-23T13:48:56.781Z,77.40
2022-10-23T13:51:29.260Z,77.30
2022-10-23T13:53:57.383Z,76.50
2022-10-23T13:56:26.409Z,77.20
2022-10-23T13:58:53.847Z,76.80
2022-10-23T14:01:26.639Z,76.90
2022-10-23T14:03:54.650Z,76.80
2022-10-23T14:06:21.202Z,76.90
2022-10-23T14:08:47.875Z,76.50
2022-10-23T14:11:16.702Z,76.80
2022-10-23T14:13:43.761Z,76.80
2022-10-23T14:16:12.923Z,76.80
2022-10-23T14:18:39.797Z,76.70
2022-10-23T14:21:07.557Z,76.30
2022-10-23T14:23:34.202Z,76.80
2022-10-23T14:26:12.739Z,76.40
2022-10-23T14:28:39.518Z,76.50
2022-10-23T14:31:15.013Z,76.40
2022-10-23T14:33:42.655Z,76.30
2022-10-23T14:36:09.989Z,76.40
2022-10-23T14:38:36.991Z,75.50
2022-10-23T14:41:09.537Z,76.00
2022-10-23T14:43:36.117Z,75.80
2022-10-23T14:46:22.577Z,75.90
2022-10-23T14:48:52.734Z,75.40
2022-10-23T14:51:32.438Z,76.10
2022-10-23T14:54:03.949Z,76.40
2022-10-23T14:56:31.564Z,76.30
2022-10-23T14:59:02.643Z,76.70
2022-10-23T15:01:31.413Z,76.90
2022-10-23T15:03:58.143Z,76.70
2022-10-23T15:06:25.047Z,76.90
2022-10-23T15:08:53.599Z,77.00
2022-10-23T15:11:20.478Z,77.00
2022-10-23T15:13:47.061Z,76.90
2022-10-23T15:16:14.201Z,77.20
2022-10-23T15:18:40.770Z,77.10
2022-10-23T15:21:08.765Z,77.20
2022-10-23T15:23:38.562Z,77.20
2022-10-23T15:26:08.303Z,77.30
2022-10-23T15:28:35.502Z,77.50
2022-10-23T15:31:02.071Z,77.60
2022-10-23T15:33:28.719Z,77.80
2022-10-23T15:35:55.480Z,77.90
2022-10-23T15:38:22.471Z,78.30
2022-10-23T15:40:49.400Z,78.00
2022-10-23T15:43:16.899Z,78.10
2022-10-23T15:45:43.613Z,78.00
2022-10-23T15:48:10.316Z,77.90
2022-10-23T15:50:37.183Z,78.30
2022-10-23T15:53:04.115Z,78.40
2022-10-23T15:55:30.727Z,78.50
2022-10-23T15:58:01.827Z,78.60
2022-10-23T16:00:28.446Z,78.50
2022-10-23T16:02:55.023Z,78.60
2022-10-23T16:05:21.629Z,78.70
2022-10-23T16:07:48.257Z,78.90
2022-10-23T16:10:14.820Z,78.80
2022-10-23T16:12:41.699Z,79.00
2022-10-23T16:15:09.056Z,79.00
2022-10-23T16:17:35.596Z,79.10
2022-10-23T16:20:02.174Z,79.20
2022-10-23T16:22:28.761Z,79.30
2022-10-23T16:24:55.495Z,79.20
2022-10-23T16:27:22.058Z,79.30
2022-10-23T16:29:48.674Z,79.30
2022-10-23T16:32:15.265Z,79.50
2022-10-23T16:34:41.890Z,79.50
2022-10-23T16:37:08.443Z,79.60
2022-10-23T16:39:36.032Z,79.40
2022-10-23T16:42:02.892Z,79.20
2022-10-23T16:44:29.510Z,79.20
2022-10-23T16:46:56.327Z,79.20
2022-10-23T16:49:22.961Z,79.30
2022-10-23T16:51:50.651Z,79.20
2022-10-23T16:54:17.747Z,79.50
2022-10-23T16:56:45.174Z,79.50
2022-10-23T16:59:11.757Z,79.60
2022-10-23T17:01:38.488Z,79.40
2022-10-23T17:04:06.380Z,79.70
2022-10-23T17:06:33.812Z,79.60
2022-10-23T17:09:01.490Z,79.80
2022-10-23T17:11:30.732Z,79.60
2022-10-23T17:14:00.651Z,79.80
2022-10-23T17:16:30.796Z,80.00
2022-10-23T17:18:58.076Z,79.90
2022-10-23T17:21:24.783Z,80.00
2022-10-23T17:23:52.578Z,79.90
2022-10-23T17:26:22.020Z,80.10
2022-10-23T17:28:49.156Z,80.20
2022-10-23T17:31:19.320Z,80.30
2022-10-23T17:33:47.502Z,80.30
2022-10-23T17:36:15.660Z,80.20
2022-10-23T17:38:45.999Z,80.10
2022-10-23T17:41:14.909Z,80.40
2022-10-23T17:43:42.000Z,80.30
2022-10-23T17:46:10.665Z,80.60
2022-10-23T17:48:39.215Z,80.40
2022-10-23T17:51:15.173Z,80.20
2022-10-23T17:53:45.225Z,80.10
2022-10-23T17:56:18.889Z,81.00
2022-10-23T17:58:46.398Z,80.60
2022-10-23T18:01:15.436Z,80.50
2022-10-23T18:03:42.819Z,81.00
2022-10-23T18:06:27.250Z,81.00
2022-10-23T18:08:56.547Z,81.00
2022-10-23T18:11:25.617Z,81.10
2022-10-23T18:13:53.969Z,81.00
2022-10-23T18:16:21.188Z,81.10
2022-10-23T18:18:48.715Z,81.10
2022-10-23T18:21:16.615Z,80.90
2022-10-23T18:23:43.388Z,80.90
2022-10-23T18:26:19.041Z,81.30
2022-10-23T18:28:46.963Z,81.20
2022-10-23T18:31:15.325Z,81.20
2022-10-23T18:33:42.884Z,81.10
2022-10-23T18:36:26.043Z,81.00
2022-10-23T18:38:52.870Z,81.40
2022-10-23T18:41:20.132Z,81.30
2022-10-23T18:43:46.767Z,81.30
2022-10-23T18:46:14.330Z,80.70
2022-10-23T18:48:42.088Z,81.00
2022-10-23T18:51:15.828Z,81.10
2022-10-23T18:53:45.684Z,81.50
2022-10-23T18:56:13.322Z,82.10
2022-10-23T18:58:40.099Z,82.50
2022-10-23T19:01:06.814Z,82.20
2022-10-23T19:03:33.547Z,83.40
2022-10-23T19:06:00.194Z,83.60
2022-10-23T19:08:26.769Z,84.90
2022-10-23T19:10:53.683Z,84.30
2022-10-23T19:13:21.265Z,84.30
2022-10-23T19:15:47.892Z,85.40
2022-10-23T19:18:14.484Z,86.00
2022-10-23T19:20:42.983Z,85.80
2022-10-23T19:23:12.714Z,85.70
2022-10-23T19:25:40.899Z,86.30
2022-10-23T19:28:07.464Z,86.20
2022-10-23T19:30:34.944Z,86.60
2022-10-23T19:33:01.686Z,87.80
2022-10-23T19:35:28.312Z,87.00
2022-10-23T19:37:54.927Z,87.10
2022-10-23T19:40:24.125Z,87.00
2022-10-23T19:42:51.116Z,86.90
2022-10-23T19:45:17.870Z,86.30
2022-10-23T19:47:46.146Z,85.90
2022-10-23T19:50:13.090Z,85.90
2022-10-23T19:52:39.676Z,85.40
2022-10-23T19:55:07.660Z,85.20
2022-10-23T19:57:34.329Z,85.00
2022-10-23T20:00:01.571Z,84.40
2022-10-23T20:02:28.362Z,84.90
2022-10-23T20:04:55.202Z,84.60
2022-10-23T20:07:22.137Z,84.70
2022-10-23T20:09:48.863Z,84.70
2022-10-23T20:12:15.532Z,84.30
2022-10-23T20:14:42.219Z,84.30
2022-10-23T20:17:08.919Z,84.20
2022-10-23T20:19:35.511Z,84.20
2022-10-23T20:22:02.115Z,84.20
2022-10-23T20:24:28.712Z,83.70
2022-10-23T20:26:56.170Z,83.40
2022-10-23T20:29:24.735Z,83.70
2022-10-23T20:31:51.768Z,83.70
2022-10-23T20:34:19.071Z,83.20
2022-10-23T20:36:48.588Z,83.40
2022-10-23T20:39:18.580Z,83.30
2022-10-23T20:41:45.467Z,83.30
2022-10-23T20:46:47.066Z,83.00
2022-10-23T20:49:14.646Z,82.80
2022-10-23T20:51:42.140Z,82.70
2022-10-23T20:54:09.113Z,82.30
2022-10-23T20:56:38.801Z,82.90
2022-10-23T20:59:12.367Z,82.60
2022-10-23T21:01:41.155Z,82.40
2022-10-23T21:04:07.828Z,81.90
2022-10-23T21:06:51.517Z,82.30
2022-10-23T21:09:21.469Z,81.40
2022-10-23T21:11:48.103Z,81.80
2022-10-23T21:14:14.661Z,81.70
2022-10-23T21:16:44.331Z,81.40
2022-10-23T21:19:13.194Z,80.60
2022-10-23T21:21:39.887Z,80.60
2022-10-23T21:24:08.984Z,80.20
2022-10-23T21:26:36.055Z,80.00
2022-10-23T21:29:17.574Z,80.00
2022-10-23T21:31:45.417Z,79.80
2022-10-23T21:34:12.193Z,79.70
2022-10-23T21:36:48.487Z,79.80
2022-10-23T21:39:25.652Z,79.60
2022-10-23T21:41:52.259Z,79.20
2022-10-23T21:44:18.875Z,79.70
2022-10-23T21:46:45.656Z,79.30
2022-10-23T21:49:12.683Z,79.50
2022-10-23T21:51:39.692Z,79.60
2022-10-23T21:54:10.204Z,79.50
2022-10-23T21:56:49.429Z,79.30
2022-10-23T21:59:19.629Z,79.40
2022-10-23T22:01:47.758Z,79.40
2022-10-23T22:04:18.257Z,79.70
2022-10-23T22:06:46.124Z,79.80
2022-10-23T22:09:15.314Z,79.30
2022-10-23T22:11:42.492Z,79.80
2022-10-23T22:14:09.092Z,79.60
2022-10-23T22:16:36.136Z,79.50
2022-10-23T22:19:03.570Z,80.00
2022-10-23T22:21:30.754Z,79.80
2022-10-23T22:23:59.681Z,79.80
2022-10-23T22:26:29.159Z,79.90
2022-10-23T22:28:58.653Z,79.90
2022-10-23T22:31:27.990Z,80.20
2022-10-23T22:33:55.734Z,80.10
2022-10-23T22:36:22.408Z,80.20
2022-10-23T22:38:49.205Z,80.30
2022-10-23T22:41:16.944Z,80.50
2022-10-23T22:43:43.679Z,80.80
2022-10-23T22:46:16.289Z,81.20
2022-10-23T22:48:43.357Z,81.40
2022-10-23T22:51:12.653Z,81.40
2022-10-23T22:53:39.315Z,81.30
2022-10-23T22:56:08.232Z,81.30
2022-10-23T22:58:35.226Z,81.50
2022-10-23T23:01:07.358Z,81.70
2022-10-23T23:03:36.179Z,82.00
2022-10-23T23:06:04.028Z,82.00
2022-10-23T23:08:30.969Z,82.10
2022-10-23T23:10:57.888Z,82.10
2022-10-23T23:13:25.868Z,82.10
2022-10-23T23:15:52.817Z,81.90
2022-10-23T23:18:19.820Z,81.80
2022-10-23T23:20:46.709Z,81.60
2022-10-23T23:23:14.116Z,81.70
2022-10-23T23:25:43.261Z,82.10
2022-10-23T23:28:12.112Z,82.50
2022-10-23T23:30:40.366Z,82.40
2022-10-23T23:33:08.008Z,82.50
2022-10-23T23:35:34.658Z,82.70
2022-10-23T23:38:01.242Z,83.10
2022-10-23T23:40:27.868Z,83.30
2022-10-23T23:42:54.444Z,83.20
2022-10-23T23:45:21.018Z,83.10
2022-10-23T23:47:47.816Z,83.40
2022-10-23T23:50:15.615Z,84.00
2022-10-23T23:52:42.276Z,84.20
2022-10-23T23:55:09.347Z,84.30
2022-10-23T23:57:35.914Z,84.30
